sensor_id;sensor_type;location;lat;lon;timestamp;P1;durP1;ratioP1;P2;durP2;ratioP2
66546;SDS011;53400;50.364;14.874;2023-05-10T00:00:16;5.32;;;2.58;;
66546;SDS011;53400;50.364;14.874;2023-05-10T00:03:02;6.25;;;2.67;;
66546;SDS011;53400;50.364;14.874;2023-05-10T00:05:30;6.15;;;2.67;;
66546;SDS011;53400;50.364;14.874;2023-05-10T00:07:56;5.75;;;2.22;;
66546;SDS011;53400;50.364;14.874;2023-05-10T00:10:21;5.25;;;2.60;;
66546;SDS011;53400;50.364;14.874;2023-05-10T00:12:50;5.85;;;2.50;;
66546;SDS011;53400;50.364;14.874;2023-05-10T00:15:16;5.72;;;2.65;;
66546;SDS011;53400;50.364;14.874;2023-05-10T00:17:45;4.70;;;2.40;;
66546;SDS011;53400;50.364;14.874;2023-05-10T00:20:11;6.05;;;2.40;;
66546;SDS011;53400;50.364;14.874;2023-05-10T00:22:37;5.10;;;2.63;;
66546;SDS011;53400;50.364;14.874;2023-05-10T00:25:03;4.30;;;2.00;;
66546;SDS011;53400;50.364;14.874;2023-05-10T00:27:30;4.93;;;2.38;;
66546;SDS011;53400;50.364;14.874;2023-05-10T00:29:57;5.45;;;2.45;;
66546;SDS011;53400;50.364;14.874;2023-05-10T00:32:23;6.10;;;2.70;;
66546;SDS011;53400;50.364;14.874;2023-05-10T00:34:49;6.25;;;2.65;;
66546;SDS011;53400;50.364;14.874;2023-05-10T00:37:16;6.13;;;2.40;;
66546;SDS011;53400;50.364;14.874;2023-05-10T00:39:42;4.93;;;2.13;;
66546;SDS011;53400;50.364;14.874;2023-05-10T00:42:07;5.38;;;2.25;;
66546;SDS011;53400;50.364;14.874;2023-05-10T00:44:33;6.40;;;2.85;;
66546;SDS011;53400;50.364;14.874;2023-05-10T00:47:01;7.72;;;3.10;;
66546;SDS011;53400;50.364;14.874;2023-05-10T00:49:26;4.57;;;2.38;;
66546;SDS011;53400;50.364;14.874;2023-05-10T00:51:57;5.88;;;2.83;;
66546;SDS011;53400;50.364;14.874;2023-05-10T00:54:22;5.50;;;2.42;;
66546;SDS011;53400;50.364;14.874;2023-05-10T00:56:49;5.13;;;2.60;;
66546;SDS011;53400;50.364;14.874;2023-05-10T00:59:15;5.47;;;2.80;;
66546;SDS011;53400;50.364;14.874;2023-05-10T01:01:42;5.35;;;2.67;;
66546;SDS011;53400;50.364;14.874;2023-05-10T01:04:09;7.72;;;2.80;;
66546;SDS011;53400;50.364;14.874;2023-05-10T01:06:37;5.30;;;2.58;;
66546;SDS011;53400;50.364;14.874;2023-05-10T01:09:03;5.40;;;2.70;;
66546;SDS011;53400;50.364;14.874;2023-05-10T01:11:29;7.10;;;2.80;;
66546;SDS011;53400;50.364;14.874;2023-05-10T01:13:56;5.75;;;2.85;;
66546;SDS011;53400;50.364;14.874;2023-05-10T01:16:23;5.32;;;2.63;;
66546;SDS011;53400;50.364;14.874;2023-05-10T01:18:50;5.60;;;2.92;;
66546;SDS011;53400;50.364;14.874;2023-05-10T01:21:21;6.65;;;2.53;;
66546;SDS011;53400;50.364;14.874;2023-05-10T01:24:18;5.88;;;2.70;;
66546;SDS011;53400;50.364;14.874;2023-05-10T01:27:33;4.97;;;2.42;;
66546;SDS011;53400;50.364;14.874;2023-05-10T01:30:21;5.10;;;2.50;;
66546;SDS011;53400;50.364;14.874;2023-05-10T01:33:11;5.80;;;3.08;;
66546;SDS011;53400;50.364;14.874;2023-05-10T01:35:45;6.65;;;3.10;;
66546;SDS011;53400;50.364;14.874;2023-05-10T01:38:18;4.70;;;2.78;;
66546;SDS011;53400;50.364;14.874;2023-05-10T01:40:50;6.22;;;3.53;;
66546;SDS011;53400;50.364;14.874;2023-05-10T01:43:24;5.28;;;2.70;;
66546;SDS011;53400;50.364;14.874;2023-05-10T01:45:56;5.80;;;2.92;;
66546;SDS011;53400;50.364;14.874;2023-05-10T01:48:31;5.53;;;2.85;;
66546;SDS011;53400;50.364;14.874;2023-05-10T01:50:58;6.18;;;2.80;;
66546;SDS011;53400;50.364;14.874;2023-05-10T01:53:24;6.22;;;3.10;;
66546;SDS011;53400;50.364;14.874;2023-05-10T01:55:52;5.18;;;2.65;;
66546;SDS011;53400;50.364;14.874;2023-05-10T01:58:21;5.40;;;2.60;;
66546;SDS011;53400;50.364;14.874;2023-05-10T02:00:50;5.38;;;2.70;;
66546;SDS011;53400;50.364;14.874;2023-05-10T02:03:18;7.00;;;3.53;;
66546;SDS011;53400;50.364;14.874;2023-05-10T02:05:49;7.13;;;3.10;;
66546;SDS011;53400;50.364;14.874;2023-05-10T02:08:17;6.13;;;2.72;;
66546;SDS011;53400;50.364;14.874;2023-05-10T02:10:45;5.55;;;2.80;;
66546;SDS011;53400;50.364;14.874;2023-05-10T02:13:14;6.72;;;3.00;;
66546;SDS011;53400;50.364;14.874;2023-05-10T02:15:42;6.88;;;3.00;;
66546;SDS011;53400;50.364;14.874;2023-05-10T02:18:09;5.60;;;2.70;;
66546;SDS011;53400;50.364;14.874;2023-05-10T02:20:36;5.22;;;2.83;;
66546;SDS011;53400;50.364;14.874;2023-05-10T02:23:05;6.05;;;2.83;;
66546;SDS011;53400;50.364;14.874;2023-05-10T02:25:33;6.55;;;3.30;;
66546;SDS011;53400;50.364;14.874;2023-05-10T02:28:00;6.32;;;3.03;;
66546;SDS011;53400;50.364;14.874;2023-05-10T02:30:28;6.53;;;2.80;;
66546;SDS011;53400;50.364;14.874;2023-05-10T02:32:57;5.65;;;2.80;;
66546;SDS011;53400;50.364;14.874;2023-05-10T02:35:24;5.65;;;2.95;;
66546;SDS011;53400;50.364;14.874;2023-05-10T02:37:51;6.75;;;2.80;;
66546;SDS011;53400;50.364;14.874;2023-05-10T02:40:20;5.85;;;3.00;;
66546;SDS011;53400;50.364;14.874;2023-05-10T02:42:48;5.43;;;2.75;;
66546;SDS011;53400;50.364;14.874;2023-05-10T02:45:19;6.75;;;3.00;;
66546;SDS011;53400;50.364;14.874;2023-05-10T02:47:49;5.70;;;3.10;;
66546;SDS011;53400;50.364;14.874;2023-05-10T02:50:14;7.78;;;2.90;;
66546;SDS011;53400;50.364;14.874;2023-05-10T02:52:42;6.78;;;2.97;;
66546;SDS011;53400;50.364;14.874;2023-05-10T02:55:13;5.88;;;2.95;;
66546;SDS011;53400;50.364;14.874;2023-05-10T02:57:45;6.65;;;3.20;;
66546;SDS011;53400;50.364;14.874;2023-05-10T03:00:15;5.75;;;2.95;;
66546;SDS011;53400;50.364;14.874;2023-05-10T03:02:41;5.88;;;2.70;;
66546;SDS011;53400;50.364;14.874;2023-05-10T03:05:09;6.55;;;3.13;;
66546;SDS011;53400;50.364;14.874;2023-05-10T03:07:35;5.57;;;3.05;;
66546;SDS011;53400;50.364;14.874;2023-05-10T03:10:02;6.38;;;2.80;;
66546;SDS011;53400;50.364;14.874;2023-05-10T03:12:31;5.80;;;3.03;;
66546;SDS011;53400;50.364;14.874;2023-05-10T03:15:11;5.82;;;3.03;;
66546;SDS011;53400;50.364;14.874;2023-05-10T03:17:45;5.55;;;3.00;;
66546;SDS011;53400;50.364;14.874;2023-05-10T03:20:16;5.97;;;3.40;;
66546;SDS011;53400;50.364;14.874;2023-05-10T03:22:50;5.78;;;2.70;;
66546;SDS011;53400;50.364;14.874;2023-05-10T03:25:18;8.23;;;3.88;;
66546;SDS011;53400;50.364;14.874;2023-05-10T03:27:47;5.65;;;2.78;;
66546;SDS011;53400;50.364;14.874;2023-05-10T03:30:15;6.18;;;3.17;;
66546;SDS011;53400;50.364;14.874;2023-05-10T03:32:42;6.90;;;3.13;;
66546;SDS011;53400;50.364;14.874;2023-05-10T03:35:08;7.53;;;3.30;;
66546;SDS011;53400;50.364;14.874;2023-05-10T03:37:35;5.65;;;2.92;;
66546;SDS011;53400;50.364;14.874;2023-05-10T03:40:01;5.40;;;2.75;;
66546;SDS011;53400;50.364;14.874;2023-05-10T03:42:28;6.05;;;2.92;;
66546;SDS011;53400;50.364;14.874;2023-05-10T03:44:53;5.60;;;2.78;;
66546;SDS011;53400;50.364;14.874;2023-05-10T03:47:21;7.05;;;2.88;;
66546;SDS011;53400;50.364;14.874;2023-05-10T03:49:47;6.65;;;2.90;;
66546;SDS011;53400;50.364;14.874;2023-05-10T03:52:13;4.72;;;2.53;;
66546;SDS011;53400;50.364;14.874;2023-05-10T03:54:38;6.53;;;2.78;;
66546;SDS011;53400;50.364;14.874;2023-05-10T03:57:04;6.30;;;3.20;;
66546;SDS011;53400;50.364;14.874;2023-05-10T03:59:30;5.35;;;2.90;;
66546;SDS011;53400;50.364;14.874;2023-05-10T04:01:56;4.97;;;2.70;;
66546;SDS011;53400;50.364;14.874;2023-05-10T04:04:24;6.38;;;2.92;;
66546;SDS011;53400;50.364;14.874;2023-05-10T04:06:50;6.18;;;2.88;;
66546;SDS011;53400;50.364;14.874;2023-05-10T04:09:15;7.47;;;3.22;;
66546;SDS011;53400;50.364;14.874;2023-05-10T04:11:42;5.93;;;2.92;;
66546;SDS011;53400;50.364;14.874;2023-05-10T04:14:08;5.57;;;2.63;;
66546;SDS011;53400;50.364;14.874;2023-05-10T04:16:34;5.63;;;2.78;;
66546;SDS011;53400;50.364;14.874;2023-05-10T04:19:00;5.57;;;2.80;;
66546;SDS011;53400;50.364;14.874;2023-05-10T04:21:27;6.45;;;3.05;;
66546;SDS011;53400;50.364;14.874;2023-05-10T04:23:53;5.18;;;2.70;;
66546;SDS011;53400;50.364;14.874;2023-05-10T04:26:19;5.75;;;2.80;;
66546;SDS011;53400;50.364;14.874;2023-05-10T04:28:45;6.95;;;3.00;;
66546;SDS011;53400;50.364;14.874;2023-05-10T04:31:12;7.10;;;2.80;;
66546;SDS011;53400;50.364;14.874;2023-05-10T04:33:38;5.57;;;2.78;;
66546;SDS011;53400;50.364;14.874;2023-05-10T04:36:04;5.40;;;2.83;;
66546;SDS011;53400;50.364;14.874;2023-05-10T04:38:32;6.65;;;2.88;;
66546;SDS011;53400;50.364;14.874;2023-05-10T04:41:04;6.03;;;2.80;;
66546;SDS011;53400;50.364;14.874;2023-05-10T04:43:34;5.65;;;2.83;;
66546;SDS011;53400;50.364;14.874;2023-05-10T04:46:02;5.75;;;2.97;;
66546;SDS011;53400;50.364;14.874;2023-05-10T04:48:28;5.50;;;3.00;;
66546;SDS011;53400;50.364;14.874;2023-05-10T04:50:54;6.10;;;2.80;;
66546;SDS011;53400;50.364;14.874;2023-05-10T04:53:20;5.32;;;2.80;;
66546;SDS011;53400;50.364;14.874;2023-05-10T04:55:48;6.68;;;3.10;;
66546;SDS011;53400;50.364;14.874;2023-05-10T04:58:14;6.30;;;3.10;;
66546;SDS011;53400;50.364;14.874;2023-05-10T05:00:43;6.45;;;2.90;;
66546;SDS011;53400;50.364;14.874;2023-05-10T05:03:09;6.35;;;2.83;;
66546;SDS011;53400;50.364;14.874;2023-05-10T05:05:35;5.63;;;2.95;;
66546;SDS011;53400;50.364;14.874;2023-05-10T05:08:01;5.82;;;2.95;;
66546;SDS011;53400;50.364;14.874;2023-05-10T05:10:28;5.90;;;3.00;;
66546;SDS011;53400;50.364;14.874;2023-05-10T05:12:55;6.50;;;3.00;;
66546;SDS011;53400;50.364;14.874;2023-05-10T05:15:24;7.15;;;3.35;;
66546;SDS011;53400;50.364;14.874;2023-05-10T05:17:50;8.93;;;3.90;;
66546;SDS011;53400;50.364;14.874;2023-05-10T05:20:16;5.75;;;3.10;;
66546;SDS011;53400;50.364;14.874;2023-05-10T05:22:42;6.63;;;3.00;;
66546;SDS011;53400;50.364;14.874;2023-05-10T05:25:08;5.45;;;2.72;;
66546;SDS011;53400;50.364;14.874;2023-05-10T05:27:35;5.68;;;3.28;;
66546;SDS011;53400;50.364;14.874;2023-05-10T05:30:03;7.15;;;3.15;;
66546;SDS011;53400;50.364;14.874;2023-05-10T05:32:30;6.47;;;2.70;;
66546;SDS011;53400;50.364;14.874;2023-05-10T05:34:56;5.68;;;2.80;;
66546;SDS011;53400;50.364;14.874;2023-05-10T05:37:22;6.85;;;3.08;;
66546;SDS011;53400;50.364;14.874;2023-05-10T05:39:48;6.53;;;3.25;;
66546;SDS011;53400;50.364;14.874;2023-05-10T05:42:14;6.18;;;3.03;;
66546;SDS011;53400;50.364;14.874;2023-05-10T05:44:42;5.90;;;3.15;;
66546;SDS011;53400;50.364;14.874;2023-05-10T05:47:09;5.70;;;3.10;;
66546;SDS011;53400;50.364;14.874;2023-05-10T05:49:36;5.72;;;2.95;;
66546;SDS011;53400;50.364;14.874;2023-05-10T05:52:02;6.28;;;2.95;;
66546;SDS011;53400;50.364;14.874;2023-05-10T05:54:28;6.60;;;3.10;;
66546;SDS011;53400;50.364;14.874;2023-05-10T05:56:55;6.82;;;3.33;;
66546;SDS011;53400;50.364;14.874;2023-05-10T05:59:21;5.97;;;3.03;;
66546;SDS011;53400;50.364;14.874;2023-05-10T06:01:47;5.90;;;3.42;;
66546;SDS011;53400;50.364;14.874;2023-05-10T06:04:15;5.32;;;2.33;;
66546;SDS011;53400;50.364;14.874;2023-05-10T06:06:42;5.88;;;3.15;;
66546;SDS011;53400;50.364;14.874;2023-05-10T06:09:08;6.25;;;3.03;;
66546;SDS011;53400;50.364;14.874;2023-05-10T06:11:35;5.78;;;3.03;;
66546;SDS011;53400;50.364;14.874;2023-05-10T06:14:01;6.25;;;3.40;;
66546;SDS011;53400;50.364;14.874;2023-05-10T06:16:29;6.07;;;3.05;;
66546;SDS011;53400;50.364;14.874;2023-05-10T06:18:55;6.00;;;2.78;;
66546;SDS011;53400;50.364;14.874;2023-05-10T06:21:22;5.88;;;3.00;;
66546;SDS011;53400;50.364;14.874;2023-05-10T06:23:48;5.85;;;3.00;;
66546;SDS011;53400;50.364;14.874;2023-05-10T06:26:15;6.68;;;3.35;;
66546;SDS011;53400;50.364;14.874;2023-05-10T06:28:41;6.28;;;3.47;;
66546;SDS011;53400;50.364;14.874;2023-05-10T06:31:07;6.07;;;2.97;;
66546;SDS011;53400;50.364;14.874;2023-05-10T06:33:33;5.07;;;3.03;;
66546;SDS011;53400;50.364;14.874;2023-05-10T06:35:59;5.20;;;2.95;;
66546;SDS011;53400;50.364;14.874;2023-05-10T06:38:27;5.18;;;2.90;;
66546;SDS011;53400;50.364;14.874;2023-05-10T06:40:53;6.00;;;3.13;;
66546;SDS011;53400;50.364;14.874;2023-05-10T06:43:18;5.82;;;3.13;;
66546;SDS011;53400;50.364;14.874;2023-05-10T06:45:45;6.85;;;3.63;;
66546;SDS011;53400;50.364;14.874;2023-05-10T06:48:11;8.00;;;3.20;;
66546;SDS011;53400;50.364;14.874;2023-05-10T06:50:37;6.47;;;3.33;;
66546;SDS011;53400;50.364;14.874;2023-05-10T06:53:03;5.60;;;3.28;;
66546;SDS011;53400;50.364;14.874;2023-05-10T06:55:31;8.20;;;3.70;;
66546;SDS011;53400;50.364;14.874;2023-05-10T06:57:56;6.38;;;3.42;;
66546;SDS011;53400;50.364;14.874;2023-05-10T07:00:23;5.70;;;3.30;;
66546;SDS011;53400;50.364;14.874;2023-05-10T07:02:49;5.75;;;3.50;;
66546;SDS011;53400;50.364;14.874;2023-05-10T07:05:16;7.78;;;3.65;;
66546;SDS011;53400;50.364;14.874;2023-05-10T07:07:42;6.75;;;3.67;;
66546;SDS011;53400;50.364;14.874;2023-05-10T07:10:09;6.70;;;3.40;;
66546;SDS011;53400;50.364;14.874;2023-05-10T07:12:36;8.30;;;3.95;;
66546;SDS011;53400;50.364;14.874;2023-05-10T07:15:03;7.30;;;3.60;;
66546;SDS011;53400;50.364;14.874;2023-05-10T07:17:30;6.07;;;3.40;;
66546;SDS011;53400;50.364;14.874;2023-05-10T07:19:59;7.75;;;3.83;;
66546;SDS011;53400;50.364;14.874;2023-05-10T07:22:25;6.15;;;3.65;;
66546;SDS011;53400;50.364;14.874;2023-05-10T07:24:51;6.15;;;3.25;;
66546;SDS011;53400;50.364;14.874;2023-05-10T07:27:17;7.72;;;4.22;;
66546;SDS011;53400;50.364;14.874;2023-05-10T07:29:45;7.78;;;3.42;;
66546;SDS011;53400;50.364;14.874;2023-05-10T07:32:11;8.00;;;4.07;;
66546;SDS011;53400;50.364;14.874;2023-05-10T07:34:37;7.22;;;3.97;;
66546;SDS011;53400;50.364;14.874;2023-05-10T07:37:02;7.15;;;4.32;;
66546;SDS011;53400;50.364;14.874;2023-05-10T07:39:28;7.25;;;3.78;;
66546;SDS011;53400;50.364;14.874;2023-05-10T07:41:54;8.88;;;3.47;;
66546;SDS011;53400;50.364;14.874;2023-05-10T07:44:21;6.47;;;3.45;;
66546;SDS011;53400;50.364;14.874;2023-05-10T07:46:48;6.18;;;3.47;;
66546;SDS011;53400;50.364;14.874;2023-05-10T07:49:14;7.75;;;3.58;;
66546;SDS011;53400;50.364;14.874;2023-05-10T07:51:40;7.18;;;3.90;;
66546;SDS011;53400;50.364;14.874;2023-05-10T07:54:08;7.97;;;3.80;;
66546;SDS011;53400;50.364;14.874;2023-05-10T07:56:33;6.85;;;3.70;;
66546;SDS011;53400;50.364;14.874;2023-05-10T07:59:00;7.72;;;3.47;;
66546;SDS011;53400;50.364;14.874;2023-05-10T08:01:30;7.18;;;4.00;;
66546;SDS011;53400;50.364;14.874;2023-05-10T08:03:59;9.35;;;3.88;;
66546;SDS011;53400;50.364;14.874;2023-05-10T08:06:26;7.90;;;3.53;;
66546;SDS011;53400;50.364;14.874;2023-05-10T08:08:53;6.43;;;3.35;;
66546;SDS011;53400;50.364;14.874;2023-05-10T08:11:20;6.50;;;3.45;;
66546;SDS011;53400;50.364;14.874;2023-05-10T08:13:47;7.22;;;3.35;;
66546;SDS011;53400;50.364;14.874;2023-05-10T08:16:15;6.03;;;3.65;;
66546;SDS011;53400;50.364;14.874;2023-05-10T08:18:41;6.97;;;3.70;;
66546;SDS011;53400;50.364;14.874;2023-05-10T08:21:08;7.13;;;3.80;;
66546;SDS011;53400;50.364;14.874;2023-05-10T08:23:36;6.93;;;3.60;;
66546;SDS011;53400;50.364;14.874;2023-05-10T08:26:02;6.65;;;3.22;;
66546;SDS011;53400;50.364;14.874;2023-05-10T08:28:29;7.35;;;3.38;;
66546;SDS011;53400;50.364;14.874;2023-05-10T08:30:55;6.75;;;3.38;;
66546;SDS011;53400;50.364;14.874;2023-05-10T08:33:21;7.25;;;3.60;;
66546;SDS011;53400;50.364;14.874;2023-05-10T08:35:47;7.53;;;3.40;;
66546;SDS011;53400;50.364;14.874;2023-05-10T08:38:15;7.95;;;3.47;;
66546;SDS011;53400;50.364;14.874;2023-05-10T08:40:41;8.02;;;3.22;;
66546;SDS011;53400;50.364;14.874;2023-05-10T08:43:12;6.50;;;3.65;;
66546;SDS011;53400;50.364;14.874;2023-05-10T08:45:41;6.88;;;3.40;;
66546;SDS011;53400;50.364;14.874;2023-05-10T08:48:09;6.65;;;3.47;;
66546;SDS011;53400;50.364;14.874;2023-05-10T08:50:36;5.95;;;3.47;;
66546;SDS011;53400;50.364;14.874;2023-05-10T08:53:04;7.13;;;3.25;;
66546;SDS011;53400;50.364;14.874;2023-05-10T08:55:33;6.75;;;3.28;;
66546;SDS011;53400;50.364;14.874;2023-05-10T08:57:59;6.00;;;3.25;;
66546;SDS011;53400;50.364;14.874;2023-05-10T09:00:26;5.80;;;3.30;;
66546;SDS011;53400;50.364;14.874;2023-05-10T09:02:53;7.35;;;3.70;;
66546;SDS011;53400;50.364;14.874;2023-05-10T09:05:20;8.35;;;3.60;;
66546;SDS011;53400;50.364;14.874;2023-05-10T09:07:46;7.50;;;3.60;;
66546;SDS011;53400;50.364;14.874;2023-05-10T09:10:12;6.85;;;3.95;;
66546;SDS011;53400;50.364;14.874;2023-05-10T09:12:40;7.05;;;3.40;;
66546;SDS011;53400;50.364;14.874;2023-05-10T09:15:07;6.47;;;3.35;;
66546;SDS011;53400;50.364;14.874;2023-05-10T09:17:35;7.88;;;3.17;;
66546;SDS011;53400;50.364;14.874;2023-05-10T09:20:02;6.78;;;3.55;;
66546;SDS011;53400;50.364;14.874;2023-05-10T09:22:33;6.00;;;3.40;;
66546;SDS011;53400;50.364;14.874;2023-05-10T09:25:06;6.75;;;3.13;;
66546;SDS011;53400;50.364;14.874;2023-05-10T09:27:33;6.07;;;3.03;;
66546;SDS011;53400;50.364;14.874;2023-05-10T09:30:01;6.10;;;3.13;;
66546;SDS011;53400;50.364;14.874;2023-05-10T09:32:36;6.20;;;3.50;;
66546;SDS011;53400;50.364;14.874;2023-05-10T09:35:09;6.47;;;3.38;;
66546;SDS011;53400;50.364;14.874;2023-05-10T09:37:36;8.77;;;3.45;;
66546;SDS011;53400;50.364;14.874;2023-05-10T09:40:05;6.07;;;3.50;;
66546;SDS011;53400;50.364;14.874;2023-05-10T09:42:33;7.65;;;3.30;;
66546;SDS011;53400;50.364;14.874;2023-05-10T09:45:01;6.55;;;3.40;;
66546;SDS011;53400;50.364;14.874;2023-05-10T09:47:31;5.90;;;3.00;;
66546;SDS011;53400;50.364;14.874;2023-05-10T09:49:57;7.68;;;3.33;;
66546;SDS011;53400;50.364;14.874;2023-05-10T09:52:28;6.93;;;3.45;;
66546;SDS011;53400;50.364;14.874;2023-05-10T09:54:54;6.75;;;3.17;;
66546;SDS011;53400;50.364;14.874;2023-05-10T09:57:21;8.43;;;3.53;;
66546;SDS011;53400;50.364;14.874;2023-05-10T09:59:47;5.60;;;3.25;;
66546;SDS011;53400;50.364;14.874;2023-05-10T10:02:16;7.15;;;3.38;;
66546;SDS011;53400;50.364;14.874;2023-05-10T10:04:42;6.28;;;3.25;;
66546;SDS011;53400;50.364;14.874;2023-05-10T10:07:11;7.60;;;3.53;;
66546;SDS011;53400;50.364;14.874;2023-05-10T10:09:37;6.82;;;3.40;;
66546;SDS011;53400;50.364;14.874;2023-05-10T10:12:04;5.72;;;3.38;;
66546;SDS011;53400;50.364;14.874;2023-05-10T10:14:31;6.22;;;3.63;;
66546;SDS011;53400;50.364;14.874;2023-05-10T10:16:57;6.10;;;3.20;;
66546;SDS011;53400;50.364;14.874;2023-05-10T10:19:27;6.97;;;4.00;;
66546;SDS011;53400;50.364;14.874;2023-05-10T10:21:53;7.93;;;3.70;;
66546;SDS011;53400;50.364;14.874;2023-05-10T10:24:19;6.68;;;3.50;;
66546;SDS011;53400;50.364;14.874;2023-05-10T10:26:46;5.53;;;3.35;;
66546;SDS011;53400;50.364;14.874;2023-05-10T10:29:19;6.07;;;3.60;;
66546;SDS011;53400;50.364;14.874;2023-05-10T10:31:52;6.22;;;3.55;;
66546;SDS011;53400;50.364;14.874;2023-05-10T10:34:28;9.27;;;3.75;;
66546;SDS011;53400;50.364;14.874;2023-05-10T10:36:56;6.33;;;3.07;;
66546;SDS011;53400;50.364;14.874;2023-05-10T10:39:23;6.55;;;3.55;;
66546;SDS011;53400;50.364;14.874;2023-05-10T10:41:53;7.38;;;3.70;;
66546;SDS011;53400;50.364;14.874;2023-05-10T10:44:23;8.93;;;3.65;;
66546;SDS011;53400;50.364;14.874;2023-05-10T10:47:04;7.05;;;3.63;;
66546;SDS011;53400;50.364;14.874;2023-05-10T10:49:41;8.48;;;3.75;;
66546;SDS011;53400;50.364;14.874;2023-05-10T10:52:18;8.30;;;4.10;;
66546;SDS011;53400;50.364;14.874;2023-05-10T10:54:59;6.35;;;3.88;;
66546;SDS011;53400;50.364;14.874;2023-05-10T10:57:27;6.40;;;3.72;;
66546;SDS011;53400;50.364;14.874;2023-05-10T11:02:43;6.22;;;3.47;;
66546;SDS011;53400;50.364;14.874;2023-05-10T11:08:13;6.57;;;3.30;;
66546;SDS011;53400;50.364;14.874;2023-05-10T11:10:49;5.82;;;3.13;;
66546;SDS011;53400;50.364;14.874;2023-05-10T11:13:30;7.45;;;3.80;;
66546;SDS011;53400;50.364;14.874;2023-05-10T11:15:58;6.60;;;3.28;;
66546;SDS011;53400;50.364;14.874;2023-05-10T11:18:35;6.32;;;3.85;;
66546;SDS011;53400;50.364;14.874;2023-05-10T11:21:03;6.70;;;4.03;;
66546;SDS011;53400;50.364;14.874;2023-05-10T11:23:47;5.40;;;3.35;;
66546;SDS011;53400;50.364;14.874;2023-05-10T11:26:15;7.00;;;3.50;;
66546;SDS011;53400;50.364;14.874;2023-05-10T11:28:42;5.88;;;3.40;;
66546;SDS011;53400;50.364;14.874;2023-05-10T11:31:09;6.28;;;3.70;;
66546;SDS011;53400;50.364;14.874;2023-05-10T11:33:42;6.68;;;3.10;;
66546;SDS011;53400;50.364;14.874;2023-05-10T11:38:37;6.57;;;3.20;;
66546;SDS011;53400;50.364;14.874;2023-05-10T11:41:03;6.95;;;3.30;;
66546;SDS011;53400;50.364;14.874;2023-05-10T11:43:32;6.47;;;3.28;;
66546;SDS011;53400;50.364;14.874;2023-05-10T11:45:58;6.05;;;3.70;;
66546;SDS011;53400;50.364;14.874;2023-05-10T11:48:24;6.18;;;3.50;;
66546;SDS011;53400;50.364;14.874;2023-05-10T11:50:50;7.03;;;3.22;;
66546;SDS011;53400;50.364;14.874;2023-05-10T11:53:19;5.95;;;3.33;;
66546;SDS011;53400;50.364;14.874;2023-05-10T11:55:45;7.75;;;3.50;;
66546;SDS011;53400;50.364;14.874;2023-05-10T11:58:11;5.30;;;3.33;;
66546;SDS011;53400;50.364;14.874;2023-05-10T12:00:37;6.05;;;3.28;;
66546;SDS011;53400;50.364;14.874;2023-05-10T12:03:03;5.68;;;3.22;;
66546;SDS011;53400;50.364;14.874;2023-05-10T12:05:31;10.02;;;3.40;;
66546;SDS011;53400;50.364;14.874;2023-05-10T12:08:10;6.28;;;3.20;;
66546;SDS011;53400;50.364;14.874;2023-05-10T12:10:39;6.90;;;3.47;;
66546;SDS011;53400;50.364;14.874;2023-05-10T12:13:10;6.78;;;3.35;;
66546;SDS011;53400;50.364;14.874;2023-05-10T12:15:37;5.97;;;3.20;;
66546;SDS011;53400;50.364;14.874;2023-05-10T12:18:03;5.88;;;3.50;;
66546;SDS011;53400;50.364;14.874;2023-05-10T12:20:30;5.82;;;3.33;;
66546;SDS011;53400;50.364;14.874;2023-05-10T12:22:57;7.50;;;3.33;;
66546;SDS011;53400;50.364;14.874;2023-05-10T12:25:26;5.57;;;3.47;;
66546;SDS011;53400;50.364;14.874;2023-05-10T12:27:57;7.70;;;3.70;;
66546;SDS011;53400;50.364;14.874;2023-05-10T12:30:26;7.30;;;3.58;;
66546;SDS011;53400;50.364;14.874;2023-05-10T12:32:59;7.25;;;3.60;;
66546;SDS011;53400;50.364;14.874;2023-05-10T12:35:26;6.50;;;3.53;;
66546;SDS011;53400;50.364;14.874;2023-05-10T12:37:55;7.28;;;3.67;;
66546;SDS011;53400;50.364;14.874;2023-05-10T12:40:21;7.53;;;3.58;;
66546;SDS011;53400;50.364;14.874;2023-05-10T12:42:47;6.88;;;3.67;;
66546;SDS011;53400;50.364;14.874;2023-05-10T12:45:15;7.55;;;3.50;;
66546;SDS011;53400;50.364;14.874;2023-05-10T12:47:43;6.25;;;3.17;;
66546;SDS011;53400;50.364;14.874;2023-05-10T12:50:09;5.30;;;3.30;;
66546;SDS011;53400;50.364;14.874;2023-05-10T12:52:35;7.22;;;3.58;;
66546;SDS011;53400;50.364;14.874;2023-05-10T12:55:01;6.85;;;3.50;;
66546;SDS011;53400;50.364;14.874;2023-05-10T12:57:28;6.38;;;3.65;;
66546;SDS011;53400;50.364;14.874;2023-05-10T12:59:54;8.23;;;3.55;;
66546;SDS011;53400;50.364;14.874;2023-05-10T13:02:22;6.40;;;3.60;;
66546;SDS011;53400;50.364;14.874;2023-05-10T13:04:48;6.10;;;3.13;;
66546;SDS011;53400;50.364;14.874;2023-05-10T13:07:15;6.07;;;3.85;;
66546;SDS011;53400;50.364;14.874;2023-05-10T13:09:41;7.30;;;3.60;;
66546;SDS011;53400;50.364;14.874;2023-05-10T13:12:07;8.20;;;3.38;;
66546;SDS011;53400;50.364;14.874;2023-05-10T13:14:33;7.40;;;3.33;;
66546;SDS011;53400;50.364;14.874;2023-05-10T13:16:59;7.72;;;3.42;;
66546;SDS011;53400;50.364;14.874;2023-05-10T13:19:28;6.13;;;3.50;;
66546;SDS011;53400;50.364;14.874;2023-05-10T13:21:55;6.75;;;3.40;;
66546;SDS011;53400;50.364;14.874;2023-05-10T13:24:20;5.85;;;3.55;;
66546;SDS011;53400;50.364;14.874;2023-05-10T13:26:47;5.60;;;3.22;;
66546;SDS011;53400;50.364;14.874;2023-05-10T13:29:13;9.90;;;3.55;;
66546;SDS011;53400;50.364;14.874;2023-05-10T13:31:41;7.28;;;3.55;;
66546;SDS011;53400;50.364;14.874;2023-05-10T13:34:07;13.10;;;3.65;;
66546;SDS011;53400;50.364;14.874;2023-05-10T13:36:35;6.22;;;3.15;;
66546;SDS011;53400;50.364;14.874;2023-05-10T13:39:01;6.93;;;3.33;;
66546;SDS011;53400;50.364;14.874;2023-05-10T13:41:29;5.43;;;3.25;;
66546;SDS011;53400;50.364;14.874;2023-05-10T13:43:54;7.20;;;3.33;;
66546;SDS011;53400;50.364;14.874;2023-05-10T13:46:20;7.25;;;3.40;;
66546;SDS011;53400;50.364;14.874;2023-05-10T13:48:46;6.45;;;3.50;;
66546;SDS011;53400;50.364;14.874;2023-05-10T13:51:12;7.43;;;3.10;;
66546;SDS011;53400;50.364;14.874;2023-05-10T13:53:39;7.43;;;3.15;;
66546;SDS011;53400;50.364;14.874;2023-05-10T13:56:06;6.95;;;3.20;;
66546;SDS011;53400;50.364;14.874;2023-05-10T13:58:32;5.75;;;3.10;;
66546;SDS011;53400;50.364;14.874;2023-05-10T14:00:58;5.53;;;3.10;;
66546;SDS011;53400;50.364;14.874;2023-05-10T14:03:23;6.63;;;2.85;;
66546;SDS011;53400;50.364;14.874;2023-05-10T14:05:49;6.57;;;3.28;;
66546;SDS011;53400;50.364;14.874;2023-05-10T14:08:15;5.70;;;2.97;;
66546;SDS011;53400;50.364;14.874;2023-05-10T14:10:43;6.32;;;3.15;;
66546;SDS011;53400;50.364;14.874;2023-05-10T14:13:09;5.65;;;2.97;;
66546;SDS011;53400;50.364;14.874;2023-05-10T14:15:35;4.95;;;2.85;;
66546;SDS011;53400;50.364;14.874;2023-05-10T14:18:00;5.22;;;2.80;;
66546;SDS011;53400;50.364;14.874;2023-05-10T14:20:27;5.03;;;2.88;;
66546;SDS011;53400;50.364;14.874;2023-05-10T14:22:53;5.30;;;2.78;;
66546;SDS011;53400;50.364;14.874;2023-05-10T14:25:19;6.28;;;2.65;;
66546;SDS011;53400;50.364;14.874;2023-05-10T14:27:46;5.22;;;2.72;;
66546;SDS011;53400;50.364;14.874;2023-05-10T14:30:13;6.13;;;3.03;;
66546;SDS011;53400;50.364;14.874;2023-05-10T14:32:40;5.40;;;2.97;;
66546;SDS011;53400;50.364;14.874;2023-05-10T14:35:06;7.70;;;3.20;;
66546;SDS011;53400;50.364;14.874;2023-05-10T14:37:32;4.78;;;2.35;;
66546;SDS011;53400;50.364;14.874;2023-05-10T14:39:59;5.75;;;2.75;;
66546;SDS011;53400;50.364;14.874;2023-05-10T14:42:25;6.10;;;2.90;;
66546;SDS011;53400;50.364;14.874;2023-05-10T14:44:52;5.30;;;2.88;;